sensor_id;sensor_type;location;lat;lon;timestamp;P1;durP1;ratioP1;P2;durP2;ratioP2
14698;SDS011;7439;50.804;4.602;2023-11-19T00:01:45;17.90;;;17.20;;
14698;SDS011;7439;50.804;4.602;2023-11-19T00:04:13;18.17;;;17.37;;
14698;SDS011;7439;50.804;4.602;2023-11-19T00:06:40;22.23;;;21.33;;
14698;SDS011;7439;50.804;4.602;2023-11-19T00:09:09;21.97;;;21.13;;
14698;SDS011;7439;50.804;4.602;2023-11-19T00:11:37;23.70;;;22.80;;
14698;SDS011;7439;50.804;4.602;2023-11-19T00:14:04;27.40;;;26.30;;
14698;SDS011;7439;50.804;4.602;2023-11-19T00:16:33;32.47;;;31.17;;
14698;SDS011;7439;50.804;4.602;2023-11-19T00:19:01;32.20;;;30.93;;
14698;SDS011;7439;50.804;4.602;2023-11-19T00:21:29;36.97;;;35.47;;
14698;SDS011;7439;50.804;4.602;2023-11-19T00:23:58;40.33;;;38.73;;
14698;SDS011;7439;50.804;4.602;2023-11-19T00:26:27;38.23;;;36.73;;
14698;SDS011;7439;50.804;4.602;2023-11-19T00:28:54;42.93;;;41.27;;
14698;SDS011;7439;50.804;4.602;2023-11-19T00:31:22;40.23;;;38.63;;
14698;SDS011;7439;50.804;4.602;2023-11-19T00:33:53;52.70;;;50.60;;
14698;SDS011;7439;50.804;4.602;2023-11-19T00:36:20;51.93;;;49.93;;
14698;SDS011;7439;50.804;4.602;2023-11-19T00:38:49;55.63;;;53.43;;
14698;SDS011;7439;50.804;4.602;2023-11-19T00:41:17;57.53;;;55.20;;
14698;SDS011;7439;50.804;4.602;2023-11-19T00:43:46;59.70;;;57.30;;
14698;SDS011;7439;50.804;4.602;2023-11-19T00:46:14;64.10;;;61.60;;
14698;SDS011;7439;50.804;4.602;2023-11-19T00:48:41;61.27;;;58.87;;
14698;SDS011;7439;50.804;4.602;2023-11-19T00:51:11;60.13;;;57.80;;
14698;SDS011;7439;50.804;4.602;2023-11-19T00:53:39;62.30;;;59.87;;
14698;SDS011;7439;50.804;4.602;2023-11-19T00:56:07;68.20;;;65.50;;
14698;SDS011;7439;50.804;4.602;2023-11-19T00:58:37;73.57;;;70.77;;
14698;SDS011;7439;50.804;4.602;2023-11-19T01:01:06;76.00;;;73.00;;
14698;SDS011;7439;50.804;4.602;2023-11-19T01:03:33;80.97;;;77.77;;
14698;SDS011;7439;50.804;4.602;2023-11-19T01:06:00;87.03;;;83.63;;
14698;SDS011;7439;50.804;4.602;2023-11-19T01:08:28;86.10;;;82.80;;
14698;SDS011;7439;50.804;4.602;2023-11-19T01:10:55;97.07;;;93.37;;
14698;SDS011;7439;50.804;4.602;2023-11-19T01:13:23;112.67;;;108.47;;
14698;SDS011;7439;50.804;4.602;2023-11-19T01:15:50;116.83;;;112.43;;
14698;SDS011;7439;50.804;4.602;2023-11-19T01:18:19;119.97;;;115.50;;
14698;SDS011;7439;50.804;4.602;2023-11-19T01:20:47;123.23;;;118.63;;
14698;SDS011;7439;50.804;4.602;2023-11-19T01:23:14;117.07;;;112.67;;
14698;SDS011;7439;50.804;4.602;2023-11-19T01:25:41;122.33;;;117.73;;
14698;SDS011;7439;50.804;4.602;2023-11-19T01:28:09;129.47;;;124.67;;
14698;SDS011;7439;50.804;4.602;2023-11-19T01:30:39;133.57;;;128.67;;
14698;SDS011;7439;50.804;4.602;2023-11-19T01:33:07;139.37;;;134.20;;
14698;SDS011;7439;50.804;4.602;2023-11-19T01:35:36;159.20;;;153.33;;
14698;SDS011;7439;50.804;4.602;2023-11-19T01:38:03;166.80;;;160.47;;
14698;SDS011;7439;50.804;4.602;2023-11-19T01:40:30;159.67;;;153.67;;
14698;SDS011;7439;50.804;4.602;2023-11-19T01:42:58;158.43;;;152.43;;
14698;SDS011;7439;50.804;4.602;2023-11-19T01:45:27;162.17;;;156.17;;
14698;SDS011;7439;50.804;4.602;2023-11-19T01:47:55;166.77;;;160.67;;
14698;SDS011;7439;50.804;4.602;2023-11-19T01:50:23;153.47;;;147.80;;
14698;SDS011;7439;50.804;4.602;2023-11-19T01:52:52;176.87;;;170.43;;
14698;SDS011;7439;50.804;4.602;2023-11-19T01:55:19;159.07;;;153.23;;
14698;SDS011;7439;50.804;4.602;2023-11-19T01:57:47;154.07;;;148.37;;
14698;SDS011;7439;50.804;4.602;2023-11-19T02:00:14;152.87;;;147.07;;
14698;SDS011;7439;50.804;4.602;2023-11-19T02:02:42;151.93;;;146.23;;
14698;SDS011;7439;50.804;4.602;2023-11-19T02:05:10;137.37;;;132.27;;
14698;SDS011;7439;50.804;4.602;2023-11-19T02:07:38;148.90;;;143.40;;
14698;SDS011;7439;50.804;4.602;2023-11-19T02:10:07;138.00;;;132.90;;
14698;SDS011;7439;50.804;4.602;2023-11-19T02:12:38;128.10;;;123.23;;
14698;SDS011;7439;50.804;4.602;2023-11-19T02:15:08;153.70;;;147.87;;
14698;SDS011;7439;50.804;4.602;2023-11-19T02:17:38;151.53;;;145.83;;
14698;SDS011;7439;50.804;4.602;2023-11-19T02:20:06;154.33;;;148.67;;
14698;SDS011;7439;50.804;4.602;2023-11-19T02:22:36;165.47;;;159.23;;
14698;SDS011;7439;50.804;4.602;2023-11-19T02:25:04;155.23;;;149.33;;
14698;SDS011;7439;50.804;4.602;2023-11-19T02:27:54;157.67;;;151.77;;
14698;SDS011;7439;50.804;4.602;2023-11-19T02:30:23;149.80;;;144.10;;
14698;SDS011;7439;50.804;4.602;2023-11-19T02:32:52;142.27;;;136.87;;
14698;SDS011;7439;50.804;4.602;2023-11-19T02:35:22;135.60;;;130.37;;
14698;SDS011;7439;50.804;4.602;2023-11-19T02:37:49;123.40;;;118.67;;
14698;SDS011;7439;50.804;4.602;2023-11-19T02:40:17;107.23;;;103.10;;
14698;SDS011;7439;50.804;4.602;2023-11-19T02:42:44;102.53;;;98.67;;
14698;SDS011;7439;50.804;4.602;2023-11-19T02:45:13;93.27;;;89.57;;
14698;SDS011;7439;50.804;4.602;2023-11-19T02:47:41;92.97;;;89.20;;
14698;SDS011;7439;50.804;4.602;2023-11-19T02:50:09;80.30;;;77.00;;
14698;SDS011;7439;50.804;4.602;2023-11-19T02:52:40;81.17;;;77.87;;
14698;SDS011;7439;50.804;4.602;2023-11-19T02:55:07;69.83;;;66.83;;
14698;SDS011;7439;50.804;4.602;2023-11-19T02:57:37;68.83;;;65.93;;
14698;SDS011;7439;50.804;4.602;2023-11-19T03:00:13;65.10;;;62.30;;
14698;SDS011;7439;50.804;4.602;2023-11-19T03:02:40;65.70;;;63.00;;
14698;SDS011;7439;50.804;4.602;2023-11-19T03:05:11;56.60;;;54.10;;
14698;SDS011;7439;50.804;4.602;2023-11-19T03:07:40;57.40;;;54.97;;
14698;SDS011;7439;50.804;4.602;2023-11-19T03:10:09;54.87;;;52.57;;
14698;SDS011;7439;50.804;4.602;2023-11-19T03:12:38;59.37;;;56.77;;
14698;SDS011;7439;50.804;4.602;2023-11-19T03:15:07;48.20;;;46.10;;
14698;SDS011;7439;50.804;4.602;2023-11-19T03:17:37;48.13;;;45.93;;
14698;SDS011;7439;50.804;4.602;2023-11-19T03:20:06;45.57;;;43.57;;
14698;SDS011;7439;50.804;4.602;2023-11-19T03:22:34;39.47;;;37.40;;
14698;SDS011;7439;50.804;4.602;2023-11-19T03:25:02;36.40;;;34.63;;
14698;SDS011;7439;50.804;4.602;2023-11-19T03:27:29;26.50;;;25.23;;
14698;SDS011;7439;50.804;4.602;2023-11-19T03:29:56;21.27;;;20.00;;
14698;SDS011;7439;50.804;4.602;2023-11-19T03:32:24;19.37;;;18.33;;
14698;SDS011;7439;50.804;4.602;2023-11-19T03:34:52;17.17;;;15.97;;
14698;SDS011;7439;50.804;4.602;2023-11-19T03:37:20;13.83;;;12.93;;
14698;SDS011;7439;50.804;4.602;2023-11-19T03:39:49;12.47;;;11.60;;
14698;SDS011;7439;50.804;4.602;2023-11-19T03:42:16;9.17;;;8.47;;
14698;SDS011;7439;50.804;4.602;2023-11-19T03:44:43;7.87;;;7.30;;
14698;SDS011;7439;50.804;4.602;2023-11-19T03:47:11;6.90;;;6.20;;
14698;SDS011;7439;50.804;4.602;2023-11-19T03:49:38;7.60;;;6.93;;
14698;SDS011;7439;50.804;4.602;2023-11-19T03:52:07;5.83;;;5.27;;
14698;SDS011;7439;50.804;4.602;2023-11-19T03:54:34;6.30;;;5.70;;
14698;SDS011;7439;50.804;4.602;2023-11-19T03:57:01;5.53;;;4.33;;
14698;SDS011;7439;50.804;4.602;2023-11-19T03:59:29;5.03;;;4.40;;
14698;SDS011;7439;50.804;4.602;2023-11-19T04:01:56;6.03;;;4.23;;
14698;SDS011;7439;50.804;4.602;2023-11-19T04:04:25;5.23;;;4.10;;
14698;SDS011;7439;50.804;4.602;2023-11-19T04:06:53;7.07;;;4.00;;
14698;SDS011;7439;50.804;4.602;2023-11-19T04:09:22;5.13;;;3.93;;
14698;SDS011;7439;50.804;4.602;2023-11-19T04:11:49;5.83;;;4.10;;
14698;SDS011;7439;50.804;4.602;2023-11-19T04:14:17;4.67;;;3.33;;
14698;SDS011;7439;50.804;4.602;2023-11-19T04:16:47;4.47;;;3.30;;
14698;SDS011;7439;50.804;4.602;2023-11-19T04:19:16;4.13;;;3.50;;
14698;SDS011;7439;50.804;4.602;2023-11-19T04:21:44;5.53;;;3.80;;
14698;SDS011;7439;50.804;4.602;2023-11-19T04:24:11;6.33;;;4.13;;
14698;SDS011;7439;50.804;4.602;2023-11-19T04:26:41;5.77;;;3.77;;
14698;SDS011;7439;50.804;4.602;2023-11-19T04:29:11;8.20;;;4.87;;
14698;SDS011;7439;50.804;4.602;2023-11-19T04:31:38;5.93;;;5.03;;
14698;SDS011;7439;50.804;4.602;2023-11-19T04:34:06;6.13;;;5.20;;
14698;SDS011;7439;50.804;4.602;2023-11-19T04:36:33;7.67;;;5.30;;
14698;SDS011;7439;50.804;4.602;2023-11-19T04:39:02;6.83;;;5.63;;
14698;SDS011;7439;50.804;4.602;2023-11-19T04:41:34;7.37;;;5.77;;
14698;SDS011;7439;50.804;4.602;2023-11-19T04:44:03;7.83;;;5.57;;
14698;SDS011;7439;50.804;4.602;2023-11-19T04:46:30;7.90;;;5.23;;
14698;SDS011;7439;50.804;4.602;2023-11-19T04:48:57;9.37;;;5.57;;
14698;SDS011;7439;50.804;4.602;2023-11-19T04:51:25;7.63;;;5.53;;
14698;SDS011;7439;50.804;4.602;2023-11-19T04:53:52;8.67;;;4.80;;
14698;SDS011;7439;50.804;4.602;2023-11-19T04:56:19;13.13;;;5.07;;
14698;SDS011;7439;50.804;4.602;2023-11-19T04:58:48;11.63;;;4.63;;
14698;SDS011;7439;50.804;4.602;2023-11-19T05:01:16;9.27;;;4.60;;
14698;SDS011;7439;50.804;4.602;2023-11-19T05:03:44;8.27;;;4.47;;
14698;SDS011;7439;50.804;4.602;2023-11-19T05:06:12;7.57;;;4.37;;
14698;SDS011;7439;50.804;4.602;2023-11-19T05:08:40;8.07;;;3.90;;
14698;SDS011;7439;50.804;4.602;2023-11-19T05:11:07;5.87;;;3.73;;
14698;SDS011;7439;50.804;4.602;2023-11-19T05:13:37;7.87;;;4.70;;
14698;SDS011;7439;50.804;4.602;2023-11-19T05:16:04;8.30;;;4.13;;
14698;SDS011;7439;50.804;4.602;2023-11-19T05:18:33;10.77;;;4.20;;
14698;SDS011;7439;50.804;4.602;2023-11-19T05:21:02;6.73;;;4.47;;
14698;SDS011;7439;50.804;4.602;2023-11-19T05:23:29;8.17;;;4.80;;
14698;SDS011;7439;50.804;4.602;2023-11-19T05:25:58;8.10;;;4.57;;
14698;SDS011;7439;50.804;4.602;2023-11-19T05:28:25;10.03;;;4.53;;
14698;SDS011;7439;50.804;4.602;2023-11-19T05:30:52;8.47;;;4.40;;
14698;SDS011;7439;50.804;4.602;2023-11-19T05:33:20;10.20;;;5.07;;
14698;SDS011;7439;50.804;4.602;2023-11-19T05:35:49;10.80;;;5.20;;
14698;SDS011;7439;50.804;4.602;2023-11-19T05:38:16;10.83;;;5.47;;
14698;SDS011;7439;50.804;4.602;2023-11-19T05:40:44;13.87;;;5.80;;
14698;SDS011;7439;50.804;4.602;2023-11-19T05:43:13;13.80;;;6.30;;
14698;SDS011;7439;50.804;4.602;2023-11-19T05:45:42;14.27;;;6.03;;
14698;SDS011;7439;50.804;4.602;2023-11-19T05:48:09;11.27;;;6.43;;
14698;SDS011;7439;50.804;4.602;2023-11-19T05:50:37;15.77;;;6.53;;
14698;SDS011;7439;50.804;4.602;2023-11-19T05:53:05;14.30;;;7.93;;
14698;SDS011;7439;50.804;4.602;2023-11-19T05:55:35;13.60;;;7.20;;
14698;SDS011;7439;50.804;4.602;2023-11-19T05:58:10;15.10;;;8.00;;
14698;SDS011;7439;50.804;4.602;2023-11-19T06:00:38;14.80;;;7.77;;
14698;SDS011;7439;50.804;4.602;2023-11-19T06:03:05;18.03;;;7.63;;
14698;SDS011;7439;50.804;4.602;2023-11-19T06:05:33;13.33;;;6.13;;
14698;SDS011;7439;50.804;4.602;2023-11-19T06:08:00;14.00;;;5.53;;
14698;SDS011;7439;50.804;4.602;2023-11-19T06:10:29;10.03;;;5.13;;
14698;SDS011;7439;50.804;4.602;2023-11-19T06:12:57;8.20;;;4.73;;
14698;SDS011;7439;50.804;4.602;2023-11-19T06:15:25;8.83;;;4.67;;
14698;SDS011;7439;50.804;4.602;2023-11-19T06:17:52;9.50;;;4.77;;
14698;SDS011;7439;50.804;4.602;2023-11-19T06:20:20;8.70;;;4.20;;
14698;SDS011;7439;50.804;4.602;2023-11-19T06:22:47;8.50;;;3.67;;
14698;SDS011;7439;50.804;4.602;2023-11-19T06:25:15;9.30;;;4.20;;
14698;SDS011;7439;50.804;4.602;2023-11-19T06:27:45;10.60;;;4.53;;
14698;SDS011;7439;50.804;4.602;2023-11-19T06:30:12;8.47;;;4.00;;
14698;SDS011;7439;50.804;4.602;2023-11-19T06:32:40;8.87;;;4.30;;
14698;SDS011;7439;50.804;4.602;2023-11-19T06:35:07;6.60;;;3.83;;
14698;SDS011;7439;50.804;4.602;2023-11-19T06:37:35;8.03;;;4.43;;
14698;SDS011;7439;50.804;4.602;2023-11-19T06:40:02;8.10;;;3.80;;
14698;SDS011;7439;50.804;4.602;2023-11-19T06:42:30;7.23;;;3.60;;
14698;SDS011;7439;50.804;4.602;2023-11-19T06:44:59;7.60;;;3.63;;
14698;SDS011;7439;50.804;4.602;2023-11-19T06:47:27;6.53;;;2.90;;
14698;SDS011;7439;50.804;4.602;2023-11-19T06:49:54;6.17;;;3.23;;
14698;SDS011;7439;50.804;4.602;2023-11-19T06:52:22;8.03;;;3.27;;
14698;SDS011;7439;50.804;4.602;2023-11-19T06:54:49;6.10;;;3.37;;
14698;SDS011;7439;50.804;4.602;2023-11-19T06:57:19;7.70;;;3.60;;
14698;SDS011;7439;50.804;4.602;2023-11-19T06:59:51;7.47;;;3.60;;
14698;SDS011;7439;50.804;4.602;2023-11-19T07:02:20;7.93;;;3.77;;
14698;SDS011;7439;50.804;4.602;2023-11-19T07:04:47;5.23;;;2.83;;
14698;SDS011;7439;50.804;4.602;2023-11-19T07:07:15;7.23;;;3.47;;
14698;SDS011;7439;50.804;4.602;2023-11-19T07:09:42;8.17;;;3.23;;
14698;SDS011;7439;50.804;4.602;2023-11-19T07:12:09;9.03;;;3.63;;
14698;SDS011;7439;50.804;4.602;2023-11-19T07:14:39;9.63;;;4.07;;
14698;SDS011;7439;50.804;4.602;2023-11-19T07:17:07;7.93;;;3.60;;
14698;SDS011;7439;50.804;4.602;2023-11-19T07:19:36;7.33;;;3.77;;
14698;SDS011;7439;50.804;4.602;2023-11-19T07:22:04;9.07;;;3.83;;
14698;SDS011;7439;50.804;4.602;2023-11-19T07:24:32;7.93;;;3.53;;
14698;SDS011;7439;50.804;4.602;2023-11-19T07:26:59;8.47;;;4.17;;
14698;SDS011;7439;50.804;4.602;2023-11-19T07:29:29;9.13;;;3.40;;
14698;SDS011;7439;50.804;4.602;2023-11-19T07:31:56;7.77;;;3.77;;
14698;SDS011;7439;50.804;4.602;2023-11-19T07:34:24;8.23;;;3.90;;
14698;SDS011;7439;50.804;4.602;2023-11-19T07:36:53;8.50;;;3.67;;
14698;SDS011;7439;50.804;4.602;2023-11-19T07:39:22;8.17;;;4.33;;
14698;SDS011;7439;50.804;4.602;2023-11-19T07:41:49;10.63;;;5.13;;
14698;SDS011;7439;50.804;4.602;2023-11-19T07:44:17;11.53;;;4.27;;
14698;SDS011;7439;50.804;4.602;2023-11-19T07:46:44;8.23;;;4.00;;
14698;SDS011;7439;50.804;4.602;2023-11-19T07:49:13;7.97;;;4.57;;
14698;SDS011;7439;50.804;4.602;2023-11-19T07:51:40;13.17;;;5.13;;
14698;SDS011;7439;50.804;4.602;2023-11-19T07:54:09;11.63;;;4.73;;
14698;SDS011;7439;50.804;4.602;2023-11-19T07:56:36;10.07;;;4.67;;
14698;SDS011;7439;50.804;4.602;2023-11-19T07:59:04;10.23;;;4.83;;
14698;SDS011;7439;50.804;4.602;2023-11-19T08:01:31;10.87;;;5.37;;
14698;SDS011;7439;50.804;4.602;2023-11-19T08:03:59;10.43;;;4.93;;
14698;SDS011;7439;50.804;4.602;2023-11-19T08:06:27;13.90;;;5.40;;
14698;SDS011;7439;50.804;4.602;2023-11-19T08:08:56;13.57;;;6.57;;
14698;SDS011;7439;50.804;4.602;2023-11-19T08:11:26;9.83;;;6.10;;
14698;SDS011;7439;50.804;4.602;2023-11-19T08:13:53;12.83;;;6.73;;
14698;SDS011;7439;50.804;4.602;2023-11-19T08:16:21;12.80;;;6.63;;
14698;SDS011;7439;50.804;4.602;2023-11-19T08:18:48;11.83;;;6.03;;
14698;SDS011;7439;50.804;4.602;2023-11-19T08:21:15;14.13;;;6.63;;
14698;SDS011;7439;50.804;4.602;2023-11-19T08:23:43;12.93;;;7.10;;
14698;SDS011;7439;50.804;4.602;2023-11-19T08:26:10;13.33;;;6.43;;
14698;SDS011;7439;50.804;4.602;2023-11-19T08:28:39;16.00;;;8.20;;
14698;SDS011;7439;50.804;4.602;2023-11-19T08:31:06;14.17;;;7.80;;
14698;SDS011;7439;50.804;4.602;2023-11-19T08:33:34;17.23;;;8.77;;
14698;SDS011;7439;50.804;4.602;2023-11-19T08:36:02;15.27;;;9.10;;
14698;SDS011;7439;50.804;4.602;2023-11-19T08:38:30;19.17;;;10.47;;
14698;SDS011;7439;50.804;4.602;2023-11-19T08:40:57;18.70;;;10.13;;
14698;SDS011;7439;50.804;4.602;2023-11-19T08:43:26;18.77;;;10.77;;
14698;SDS011;7439;50.804;4.602;2023-11-19T08:45:54;18.30;;;11.47;;
14698;SDS011;7439;50.804;4.602;2023-11-19T08:48:25;21.00;;;13.63;;
14698;SDS011;7439;50.804;4.602;2023-11-19T08:50:52;19.63;;;15.03;;
14698;SDS011;7439;50.804;4.602;2023-11-19T08:53:19;17.70;;;12.10;;
14698;SDS011;7439;50.804;4.602;2023-11-19T08:55:47;13.40;;;10.53;;
14698;SDS011;7439;50.804;4.602;2023-11-19T08:58:14;22.30;;;9.47;;
14698;SDS011;7439;50.804;4.602;2023-11-19T09:00:43;19.23;;;7.90;;
14698;SDS011;7439;50.804;4.602;2023-11-19T09:03:12;11.27;;;6.80;;
14698;SDS011;7439;50.804;4.602;2023-11-19T09:05:39;14.57;;;6.37;;
14698;SDS011;7439;50.804;4.602;2023-11-19T09:08:06;13.43;;;6.47;;
14698;SDS011;7439;50.804;4.602;2023-11-19T09:10:34;13.57;;;6.30;;
14698;SDS011;7439;50.804;4.602;2023-11-19T09:13:02;12.57;;;6.33;;
14698;SDS011;7439;50.804;4.602;2023-11-19T09:15:29;17.13;;;8.10;;
14698;SDS011;7439;50.804;4.602;2023-11-19T09:17:56;17.57;;;8.73;;
14698;SDS011;7439;50.804;4.602;2023-11-19T09:20:25;12.97;;;10.57;;
14698;SDS011;7439;50.804;4.602;2023-11-19T09:22:52;21.53;;;11.30;;
14698;SDS011;7439;50.804;4.602;2023-11-19T09:25:20;17.90;;;10.20;;
14698;SDS011;7439;50.804;4.602;2023-11-19T09:27:47;18.60;;;15.10;;
14698;SDS011;7439;50.804;4.602;2023-11-19T09:30:15;18.60;;;15.13;;
14698;SDS011;7439;50.804;4.602;2023-11-19T09:32:42;16.30;;;13.63;;
14698;SDS011;7439;50.804;4.602;2023-11-19T09:35:09;12.20;;;9.63;;
14698;SDS011;7439;50.804;4.602;2023-11-19T09:37:41;16.17;;;12.37;;
14698;SDS011;7439;50.804;4.602;2023-11-19T09:40:08;17.10;;;10.93;;
14698;SDS011;7439;50.804;4.602;2023-11-19T09:42:38;15.63;;;12.40;;
14698;SDS011;7439;50.804;4.602;2023-11-19T09:45:07;15.87;;;14.37;;
14698;SDS011;7439;50.804;4.602;2023-11-19T09:47:38;19.83;;;13.97;;
14698;SDS011;7439;50.804;4.602;2023-11-19T09:50:06;20.57;;;11.83;;
14698;SDS011;7439;50.804;4.602;2023-11-19T09:52:33;19.80;;;11.80;;
14698;SDS011;7439;50.804;4.602;2023-11-19T09:55:02;22.20;;;17.03;;
14698;SDS011;7439;50.804;4.602;2023-11-19T09:57:29;22.63;;;20.23;;
14698;SDS011;7439;50.804;4.602;2023-11-19T09:59:57;17.43;;;13.27;;
14698;SDS011;7439;50.804;4.602;2023-11-19T10:02:29;20.40;;;15.80;;
14698;SDS011;7439;50.804;4.602;2023-11-19T10:04:58;14.57;;;13.17;;
14698;SDS011;7439;50.804;4.602;2023-11-19T10:07:26;14.03;;;12.73;;
14698;SDS011;7439;50.804;4.602;2023-11-19T10:09:53;16.73;;;15.07;;
14698;SDS011;7439;50.804;4.602;2023-11-19T10:12:22;18.90;;;13.00;;
14698;SDS011;7439;50.804;4.602;2023-11-19T10:14:50;16.27;;;12.47;;
14698;SDS011;7439;50.804;4.602;2023-11-19T10:17:17;19.60;;;17.73;;
14698;SDS011;7439;50.804;4.602;2023-11-19T10:19:45;19.77;;;14.30;;
14698;SDS011;7439;50.804;4.602;2023-11-19T10:22:12;17.00;;;13.70;;
14698;SDS011;7439;50.804;4.602;2023-11-19T10:24:41;20.87;;;13.53;;
14698;SDS011;7439;50.804;4.602;2023-11-19T10:27:09;16.00;;;14.30;;
14698;SDS011;7439;50.804;4.602;2023-11-19T10:29:37;18.10;;;13.13;;
14698;SDS011;7439;50.804;4.602;2023-11-19T10:32:05;16.43;;;14.33;;
14698;SDS011;7439;50.804;4.602;2023-11-19T10:34:33;23.43;;;21.43;;
14698;SDS011;7439;50.804;4.602;2023-11-19T10:37:02;28.60;;;26.20;;
14698;SDS011;7439;50.804;4.602;2023-11-19T10:39:33;17.00;;;13.17;;
14698;SDS011;7439;50.804;4.602;2023-11-19T10:42:19;22.03;;;20.03;;
14698;SDS011;7439;50.804;4.602;2023-11-19T10:44:48;18.10;;;11.97;;
14698;SDS011;7439;50.804;4.602;2023-11-19T10:47:15;25.27;;;23.30;;
14698;SDS011;7439;50.804;4.602;2023-11-19T10:49:45;15.60;;;14.00;;
14698;SDS011;7439;50.804;4.602;2023-11-19T10:52:14;14.40;;;12.00;;
14698;SDS011;7439;50.804;4.602;2023-11-19T10:54:44;21.73;;;19.63;;
14698;SDS011;7439;50.804;4.602;2023-11-19T10:57:18;15.67;;;14.03;;
14698;SDS011;7439;50.804;4.602;2023-11-19T10:59:48;19.97;;;18.17;;
14698;SDS011;7439;50.804;4.602;2023-11-19T11:02:18;20.20;;;18.40;;
14698;SDS011;7439;50.804;4.602;2023-11-19T11:04:46;13.50;;;12.00;;
14698;SDS011;7439;50.804;4.602;2023-11-19T11:07:14;23.57;;;17.53;;
14698;SDS011;7439;50.804;4.602;2023-11-19T11:09:42;17.17;;;15.83;;
14698;SDS011;7439;50.804;4.602;2023-11-19T11:12:14;15.17;;;11.80;;
14698;SDS011;7439;50.804;4.602;2023-11-19T11:14:42;17.73;;;12.93;;
14698;SDS011;7439;50.804;4.602;2023-11-19T11:17:12;15.97;;;13.97;;
14698;SDS011;7439;50.804;4.602;2023-11-19T11:19:44;16.13;;;14.47;;
14698;SDS011;7439;50.804;4.602;2023-11-19T11:22:12;39.90;;;37.03;;
14698;SDS011;7439;50.804;4.602;2023-11-19T11:24:45;39.47;;;36.60;;
14698;SDS011;7439;50.804;4.602;2023-11-19T11:27:30;33.73;;;30.77;;
14698;SDS011;7439;50.804;4.602;2023-11-19T11:30:03;28.60;;;26.00;;
14698;SDS011;7439;50.804;4.602;2023-11-19T11:32:35;26.40;;;17.17;;
14698;SDS011;7439;50.804;4.602;2023-11-19T11:35:09;22.30;;;18.13;;
14698;SDS011;7439;50.804;4.602;2023-11-19T11:37:43;15.87;;;9.73;;
14698;SDS011;7439;50.804;4.602;2023-11-19T11:40:13;19.73;;;13.50;;
14698;SDS011;7439;50.804;4.602;2023-11-19T11:42:41;16.23;;;10.00;;
14698;SDS011;7439;50.804;4.602;2023-11-19T11:45:09;16.20;;;11.30;;
14698;SDS011;7439;50.804;4.602;2023-11-19T11:50:25;21.63;;;10.73;;
14698;SDS011;7439;50.804;4.602;2023-11-19T11:55:52;13.73;;;12.53;;
14698;SDS011;7439;50.804;4.602;2023-11-19T11:58:20;16.03;;;9.97;;
14698;SDS011;7439;50.804;4.602;2023-11-19T12:00:47;20.83;;;9.73;;
14698;SDS011;7439;50.804;4.602;2023-11-19T12:03:16;15.47;;;10.43;;
14698;SDS011;7439;50.804;4.602;2023-11-19T12:05:48;21.93;;;14.07;;
14698;SDS011;7439;50.804;4.602;2023-11-19T12:08:18;18.60;;;11.23;;
14698;SDS011;7439;50.804;4.602;2023-11-19T12:10:46;17.17;;;10.47;;
14698;SDS011;7439;50.804;4.602;2023-11-19T12:13:14;27.47;;;25.40;;
14698;SDS011;7439;50.804;4.602;2023-11-19T12:18:30;18.17;;;16.40;;
14698;SDS011;7439;50.804;4.602;2023-11-19T12:20:59;20.13;;;17.87;;
14698;SDS011;7439;50.804;4.602;2023-11-19T12:23:27;18.83;;;17.13;;
14698;SDS011;7439;50.804;4.602;2023-11-19T12:25:55;22.27;;;20.60;;
14698;SDS011;7439;50.804;4.602;2023-11-19T12:28:23;30.93;;;28.97;;
14698;SDS011;7439;50.804;4.602;2023-11-19T12:30:52;30.27;;;28.17;;
14698;SDS011;7439;50.804;4.602;2023-11-19T12:33:19;23.80;;;21.90;;
14698;SDS011;7439;50.804;4.602;2023-11-19T12:35:47;21.90;;;19.83;;
14698;SDS011;7439;50.804;4.602;2023-11-19T12:38:19;17.53;;;16.00;;
14698;SDS011;7439;50.804;4.602;2023-11-19T12:40:47;10.80;;;8.70;;
14698;SDS011;7439;50.804;4.602;2023-11-19T12:43:21;10.20;;;7.97;;
14698;SDS011;7439;50.804;4.602;2023-11-19T12:45:48;13.13;;;6.47;;
14698;SDS011;7439;50.804;4.602;2023-11-19T12:48:15;14.90;;;5.80;;
14698;SDS011;7439;50.804;4.602;2023-11-19T12:50:52;11.00;;;7.00;;
14698;SDS011;7439;50.804;4.602;2023-11-19T12:53:22;10.97;;;7.63;;
14698;SDS011;7439;50.804;4.602;2023-11-19T12:55:50;12.77;;;6.77;;
14698;SDS011;7439;50.804;4.602;2023-11-19T12:58:29;12.53;;;6.40;;
14698;SDS011;7439;50.804;4.602;2023-11-19T13:01:00;16.93;;;12.00;;
14698;SDS011;7439;50.804;4.602;2023-11-19T13:03:31;15.47;;;11.33;;
14698;SDS011;7439;50.804;4.602;2023-11-19T13:06:02;12.60;;;11.30;;
14698;SDS011;7439;50.804;4.602;2023-11-19T13:08:36;19.07;;;9.83;;
14698;SDS011;7439;50.804;4.602;2023-11-19T13:11:04;15.73;;;8.27;;
14698;SDS011;7439;50.804;4.602;2023-11-19T13:13:32;20.13;;;16.77;;
14698;SDS011;7439;50.804;4.602;2023-11-19T13:16:04;25.53;;;16.03;;
14698;SDS011;7439;50.804;4.602;2023-11-19T13:18:31;18.70;;;14.93;;
14698;SDS011;7439;50.804;4.602;2023-11-19T13:20:59;17.70;;;15.97;;
14698;SDS011;7439;50.804;4.602;2023-11-19T13:23:27;24.00;;;15.40;;
14698;SDS011;7439;50.804;4.602;2023-11-19T13:25:55;16.60;;;14.43;;
14698;SDS011;7439;50.804;4.602;2023-11-19T13:28:23;24.20;;;15.23;;
14698;SDS011;7439;50.804;4.602;2023-11-19T13:30:51;14.23;;;12.97;;
14698;SDS011;7439;50.804;4.602;2023-11-19T13:33:19;14.13;;;9.70;;
14698;SDS011;7439;50.804;4.602;2023-11-19T13:35:46;12.67;;;6.50;;
14698;SDS011;7439;50.804;4.602;2023-11-19T13:38:13;11.10;;;5.63;;
14698;SDS011;7439;50.804;4.602;2023-11-19T13:40:41;8.60;;;4.00;;
14698;SDS011;7439;50.804;4.602;2023-11-19T13:43:09;10.17;;;3.77;;
14698;SDS011;7439;50.804;4.602;2023-11-19T13:45:37;11.27;;;4.33;;
14698;SDS011;7439;50.804;4.602;2023-11-19T13:48:04;8.97;;;4.30;;
14698;SDS011;7439;50.804;4.602;2023-11-19T13:50:32;10.73;;;5.07;;
14698;SDS011;7439;50.804;4.602;2023-11-19T13:52:59;10.30;;;4.97;;
14698;SDS011;7439;50.804;4.602;2023-11-19T13:55:27;12.80;;;5.77;;
14698;SDS011;7439;50.804;4.602;2023-11-19T13:57:54;12.20;;;6.50;;
14698;SDS011;7439;50.804;4.602;2023-11-19T14:00:23;16.13;;;5.23;;
14698;SDS011;7439;50.804;4.602;2023-11-19T14:02:50;10.37;;;5.47;;
14698;SDS011;7439;50.804;4.602;2023-11-19T14:05:18;12.97;;;6.20;;
14698;SDS011;7439;50.804;4.602;2023-11-19T14:07:46;12.10;;;6.00;;
14698;SDS011;7439;50.804;4.602;2023-11-19T14:10:13;13.83;;;5.57;;
14698;SDS011;7439;50.804;4.602;2023-11-19T14:12:41;13.67;;;6.57;;
14698;SDS011;7439;50.804;4.602;2023-11-19T14:15:09;9.80;;;6.37;;
14698;SDS011;7439;50.804;4.602;2023-11-19T14:17:39;12.57;;;6.13;;
14698;SDS011;7439;50.804;4.602;2023-11-19T14:20:07;12.67;;;6.20;;
14698;SDS011;7439;50.804;4.602;2023-11-19T14:22:38;15.27;;;6.83;;
14698;SDS011;7439;50.804;4.602;2023-11-19T14:25:06;10.93;;;5.50;;
14698;SDS011;7439;50.804;4.602;2023-11-19T14:27:35;16.40;;;6.07;;
14698;SDS011;7439;50.804;4.602;2023-11-19T14:30:03;16.97;;;7.20;;
14698;SDS011;7439;50.804;4.602;2023-11-19T14:32:31;11.70;;;7.93;;
14698;SDS011;7439;50.804;4.602;2023-11-19T14:35:00;20.43;;;8.70;;
14698;SDS011;7439;50.804;4.602;2023-11-19T14:37:28;14.30;;;7.40;;
14698;SDS011;7439;50.804;4.602;2023-11-19T14:39:57;12.73;;;7.23;;
14698;SDS011;7439;50.804;4.602;2023-11-19T14:42:24;12.77;;;7.47;;
14698;SDS011;7439;50.804;4.602;2023-11-19T14:44:52;12.50;;;5.60;;
14698;SDS011;7439;50.804;4.602;2023-11-19T14:47:19;14.97;;;6.10;;
14698;SDS011;7439;50.804;4.602;2023-11-19T14:49:47;15.90;;;6.17;;
14698;SDS011;7439;50.804;4.602;2023-11-19T14:52:16;11.63;;;6.67;;
14698;SDS011;7439;50.804;4.602;2023-11-19T14:54:43;13.90;;;6.83;;
14698;SDS011;7439;50.804;4.602;2023-11-19T14:57:11;11.90;;;7.27;;